createdAt,value
2022-10-09T00:00:06.279Z,9.96
2022-10-09T00:05:15.441Z,9.94
2022-10-09T00:10:19.356Z,9.90
2022-10-09T00:15:24.588Z,9.83
2022-10-09T00:20:28.374Z,9.82
2022-10-09T00:25:32.230Z,9.73
2022-10-09T00:30:40.342Z,9.68
2022-10-09T00:35:44.236Z,9.59
2022-10-09T00:40:48.012Z,9.61
2022-10-09T00:45:57.635Z,9.48
2022-10-09T00:51:03.171Z,9.44
2022-10-09T00:56:07.317Z,9.40
2022-10-09T01:01:12.414Z,9.38
2022-10-09T01:06:21.520Z,9.34
2022-10-09T01:11:35.762Z,9.31
2022-10-09T01:16:46.564Z,9.20
2022-10-09T01:21:59.260Z,9.13
2022-10-09T01:27:12.066Z,9.13
2022-10-09T01:32:19.807Z,9.08
2022-10-09T01:37:24.376Z,9.00
2022-10-09T01:42:30.824Z,8.92
2022-10-09T01:47:34.719Z,8.90
2022-10-09T01:52:45.200Z,8.82
2022-10-09T01:57:54.723Z,8.80
2022-10-09T02:02:59.078Z,8.74
2022-10-09T02:08:03.515Z,8.74
2022-10-09T02:13:08.832Z,8.63
2022-10-09T02:18:16.035Z,8.59
2022-10-09T02:23:22.752Z,8.51
2022-10-09T02:28:27.958Z,8.48
2022-10-09T02:33:33.303Z,8.47
2022-10-09T02:38:37.077Z,8.41
2022-10-09T02:43:42.158Z,8.37
2022-10-09T02:48:46.398Z,8.29
2022-10-09T02:53:52.228Z,8.26
2022-10-09T02:58:57.548Z,8.26
2022-10-09T03:04:01.675Z,8.23
2022-10-09T03:09:05.534Z,8.20
2022-10-09T03:14:11.292Z,8.18
2022-10-09T03:19:15.033Z,8.13
2022-10-09T03:24:18.807Z,8.16
2022-10-09T03:29:24.043Z,8.09
2022-10-09T03:34:27.732Z,8.07
2022-10-09T03:39:31.593Z,8.08
2022-10-09T03:44:36.654Z,8.04
2022-10-09T03:49:40.388Z,7.99
2022-10-09T03:54:44.112Z,7.98
2022-10-09T03:59:49.209Z,7.94
2022-10-09T04:04:52.950Z,7.90
2022-10-09T04:09:56.733Z,7.85
2022-10-09T04:15:01.892Z,7.78
2022-10-09T04:20:06.051Z,7.77
2022-10-09T04:25:10.493Z,7.78
2022-10-09T04:30:15.854Z,7.76
2022-10-09T04:35:19.634Z,7.69
2022-10-09T04:40:23.350Z,7.64
2022-10-09T04:45:28.500Z,7.61
2022-10-09T04:50:32.235Z,7.56
2022-10-09T04:55:40.190Z,7.57
2022-10-09T05:00:46.860Z,7.52
2022-10-09T05:05:50.705Z,7.46
2022-10-09T05:10:54.443Z,7.42
2022-10-09T05:16:02.428Z,7.38
2022-10-09T05:21:06.697Z,7.35
2022-10-09T05:26:14.234Z,7.34
2022-10-09T05:31:22.344Z,7.34
2022-10-09T05:36:26.133Z,7.27
2022-10-09T05:41:30.495Z,7.23
2022-10-09T05:46:36.099Z,7.22
2022-10-09T05:51:42.696Z,7.22
2022-10-09T05:56:46.541Z,7.20
2022-10-09T06:01:54.541Z,7.17
2022-10-09T06:06:58.438Z,7.18
2022-10-09T06:12:02.188Z,7.14
2022-10-09T06:17:07.245Z,7.12
2022-10-09T06:22:10.958Z,7.17
2022-10-09T06:27:14.737Z,7.24
2022-10-09T06:32:19.828Z,7.25
2022-10-09T06:37:23.670Z,7.31
2022-10-09T06:42:27.383Z,7.41
2022-10-09T06:47:34.950Z,7.53
2022-10-09T06:52:38.805Z,7.62
2022-10-09T06:57:42.726Z,7.74
2022-10-09T07:02:48.207Z,7.92
2022-10-09T07:07:52.164Z,8.08
2022-10-09T07:12:55.979Z,8.23
2022-10-09T07:18:03.559Z,8.44
2022-10-09T07:23:10.092Z,8.59
2022-10-09T07:28:13.950Z,8.72
2022-10-09T07:33:19.050Z,8.89
2022-10-09T07:38:22.926Z,9.08
2022-10-09T07:43:29.719Z,9.20
2022-10-09T07:48:35.342Z,9.38
2022-10-09T07:53:39.661Z,9.56
2022-10-09T07:58:43.609Z,9.74
2022-10-09T08:03:49.327Z,9.92
2022-10-09T08:08:54.491Z,10.11
2022-10-09T08:13:58.988Z,10.29
2022-10-09T08:19:04.893Z,10.41
2022-10-09T08:24:08.701Z,10.57
2022-10-09T08:29:17.060Z,10.72
2022-10-09T08:34:22.100Z,10.84
2022-10-09T08:39:29.514Z,10.99
2022-10-09T08:44:39.479Z,11.17
2022-10-09T08:49:51.474Z,11.28
2022-10-09T08:54:58.291Z,11.46
2022-10-09T09:00:02.110Z,11.74
2022-10-09T09:05:20.618Z,11.95
2022-10-09T09:10:32.438Z,12.13
2022-10-09T09:15:48.090Z,12.36
2022-10-09T09:20:55.620Z,12.60
2022-10-09T09:25:59.945Z,12.73
2022-10-09T09:31:09.623Z,13.04
2022-10-09T09:36:23.343Z,13.36
2022-10-09T09:41:28.976Z,13.73
2022-10-09T09:46:33.744Z,13.92
2022-10-09T09:51:38.913Z,14.16
2022-10-09T10:02:14.398Z,15.03
2022-10-09T10:07:30.217Z,15.53
2022-10-09T10:12:34.275Z,15.73
2022-10-09T10:17:38.635Z,16.33
2022-10-09T10:22:51.709Z,17.26
2022-10-09T10:28:01.838Z,18.53
2022-10-09T10:33:15.335Z,19.26
2022-10-09T10:38:26.584Z,19.49
2022-10-09T10:43:36.951Z,20.55
2022-10-09T10:48:42.889Z,20.95
2022-10-09T10:54:02.518Z,21.40
2022-10-09T10:59:26.212Z,22.03
2022-10-09T11:04:44.248Z,22.94
2022-10-09T11:09:59.098Z,23.73
2022-10-09T11:15:13.607Z,23.97
2022-10-09T11:20:40.184Z,24.28
2022-10-09T11:25:55.236Z,24.23
2022-10-09T11:31:05.149Z,25.04
2022-10-09T11:36:17.202Z,24.47
2022-10-09T11:41:22.953Z,25.18
2022-10-09T11:46:41.430Z,24.93
2022-10-09T11:51:51.811Z,25.02
2022-10-09T11:56:59.220Z,25.88
2022-10-09T12:02:22.994Z,25.87
2022-10-09T12:07:33.189Z,25.87
2022-10-09T12:12:38.996Z,26.04
2022-10-09T12:17:49.852Z,26.11
2022-10-09T12:23:21.716Z,25.93
2022-10-09T12:28:29.112Z,26.81
2022-10-09T12:33:37.861Z,26.93
2022-10-09T12:38:42.456Z,27.27
2022-10-09T12:43:49.121Z,27.40
2022-10-09T12:48:53.094Z,28.01
2022-10-09T12:53:57.077Z,28.46
2022-10-09T12:59:03.140Z,28.52
2022-10-09T13:04:09.457Z,29.44
2022-10-09T13:09:21.432Z,29.23
2022-10-09T13:14:29.624Z,29.65
2022-10-09T13:19:35.357Z,29.74
2022-10-09T13:24:39.192Z,30.16
2022-10-09T13:29:44.763Z,29.89
2022-10-09T13:34:48.529Z,28.95
2022-10-09T13:39:53.577Z,30.02
2022-10-09T13:44:58.814Z,28.88
2022-10-09T13:50:02.632Z,30.22
2022-10-09T13:55:07.309Z,29.70
2022-10-09T14:00:13.815Z,29.85
2022-10-09T14:05:17.781Z,30.13
2022-10-09T14:10:23.882Z,29.44
2022-10-09T14:15:29.277Z,29.36
2022-10-09T14:20:33.339Z,30.03
2022-10-09T14:25:37.221Z,29.32
2022-10-09T14:30:42.922Z,29.29
2022-10-09T14:35:46.758Z,29.43
2022-10-09T14:40:50.569Z,30.04
2022-10-09T14:46:04.121Z,29.27
2022-10-09T14:51:11.379Z,29.52
2022-10-09T14:56:17.365Z,28.46
2022-10-09T15:01:23.511Z,28.45
2022-10-09T15:06:28.214Z,28.42
2022-10-09T15:11:31.908Z,27.22
2022-10-09T15:16:37.318Z,26.49
2022-10-09T15:21:41.352Z,27.34
2022-10-09T15:26:45.023Z,27.66
2022-10-09T15:31:51.876Z,27.48
2022-10-09T15:36:55.669Z,26.93
2022-10-09T15:41:59.365Z,26.50
2022-10-09T15:47:04.488Z,24.14
2022-10-09T15:52:08.268Z,23.34
2022-10-09T15:57:12.029Z,23.30
2022-10-09T16:02:17.236Z,22.81
2022-10-09T16:07:20.980Z,22.14
2022-10-09T16:12:24.692Z,22.09
2022-10-09T16:17:29.777Z,21.92
2022-10-09T16:22:33.788Z,21.65
2022-10-09T16:27:37.656Z,21.10
2022-10-09T16:32:42.764Z,21.02
2022-10-09T16:37:46.605Z,21.02
2022-10-09T16:42:52.829Z,20.91
2022-10-09T16:48:01.469Z,20.72
2022-10-09T16:53:05.396Z,20.41
2022-10-09T16:58:09.252Z,20.10
2022-10-09T17:03:14.280Z,19.90
2022-10-09T17:08:18.105Z,19.88
2022-10-09T17:13:21.970Z,19.75
2022-10-09T17:18:27.100Z,19.58
2022-10-09T17:23:30.955Z,19.33
2022-10-09T17:28:35.453Z,18.96
2022-10-09T17:33:42.799Z,18.79
2022-10-09T17:38:47.304Z,18.66
2022-10-09T17:43:52.311Z,18.40
2022-10-09T17:48:58.506Z,18.27
2022-10-09T17:54:05.972Z,18.05
2022-10-09T17:59:13.943Z,17.91
2022-10-09T18:04:19.013Z,17.73
2022-10-09T18:09:22.871Z,17.47
2022-10-09T18:14:26.632Z,17.38
2022-10-09T18:19:31.817Z,17.11
2022-10-09T18:24:35.642Z,16.94
2022-10-09T18:29:39.401Z,16.78
2022-10-09T18:34:46.595Z,16.55
2022-10-09T18:39:50.727Z,16.42
2022-10-09T18:44:54.602Z,16.25
2022-10-09T18:50:01.799Z,16.19
2022-10-09T18:55:08.508Z,15.99
2022-10-09T19:00:13.853Z,15.95
2022-10-09T19:05:19.102Z,15.83
2022-10-09T19:10:23.088Z,15.91
2022-10-09T19:15:26.787Z,15.60
2022-10-09T19:20:32.398Z,15.23
2022-10-09T19:25:36.214Z,15.16
2022-10-09T19:30:40.356Z,15.23
2022-10-09T19:35:50.113Z,15.16
2022-10-09T19:40:54.438Z,15.06
2022-10-09T19:46:02.772Z,14.92
2022-10-09T19:51:10.353Z,14.83
2022-10-09T19:56:15.843Z,14.70
2022-10-09T20:01:21.339Z,14.63
2022-10-09T20:06:27.305Z,14.55
2022-10-09T20:11:31.028Z,14.46
2022-10-09T20:16:34.979Z,14.38
2022-10-09T20:21:40.215Z,14.26
2022-10-09T20:26:44.047Z,14.14
2022-10-09T20:31:48.794Z,14.03
2022-10-09T20:36:54.427Z,13.96
2022-10-09T20:41:59.619Z,13.60
2022-10-09T20:47:03.497Z,13.61
2022-10-09T20:52:08.642Z,13.66
2022-10-09T20:57:12.357Z,13.47
2022-10-09T21:02:16.676Z,13.52
2022-10-09T21:07:21.835Z,13.41
2022-10-09T21:12:25.582Z,13.36
2022-10-09T21:17:29.365Z,13.43
2022-10-09T21:22:34.793Z,13.30
2022-10-09T21:27:38.579Z,13.22
2022-10-09T21:32:44.565Z,13.18
2022-10-09T21:37:50.377Z,12.90
2022-10-09T21:42:54.044Z,12.91
2022-10-09T21:47:57.918Z,12.73
2022-10-09T21:53:03.223Z,12.48
2022-10-09T21:58:08.108Z,12.54
2022-10-09T22:03:11.836Z,12.57
2022-10-09T22:08:16.913Z,12.49
2022-10-09T22:13:21.740Z,12.35
2022-10-09T22:18:25.508Z,12.32
2022-10-09T22:23:30.717Z,12.31
2022-10-09T22:28:35.400Z,12.23
2022-10-09T22:33:39.331Z,12.28
2022-10-09T22:38:45.751Z,12.22
2022-10-09T22:43:51.205Z,11.98
2022-10-09T22:48:55.066Z,12.04
2022-10-09T22:54:00.836Z,12.07
2022-10-09T22:59:05.445Z,11.91
2022-10-09T23:04:13.047Z,11.83
2022-10-09T23:09:19.004Z,11.83
2022-10-09T23:14:22.717Z,11.70
2022-10-09T23:19:26.432Z,11.73
2022-10-09T23:24:31.484Z,11.79
2022-10-09T23:29:35.279Z,11.65
2022-10-09T23:34:39.034Z,11.63
2022-10-09T23:39:44.115Z,11.61
2022-10-09T23:44:47.826Z,11.42
2022-10-09T23:49:51.575Z,11.52
2022-10-09T23:54:56.616Z,11.42
